createdAt,value
2022-11-04T00:00:08.424Z,4.90
2022-11-04T00:02:56.845Z,4.92
2022-11-04T00:05:26.040Z,4.93
2022-11-04T00:08:12.451Z,4.93
2022-11-04T00:10:59.274Z,4.93
2022-11-04T00:13:29.709Z,4.91
2022-11-04T00:16:28.645Z,4.90
2022-11-04T00:18:56.973Z,4.89
2022-11-04T00:21:43.412Z,4.89
2022-11-04T00:24:31.660Z,4.90
2022-11-04T00:27:18.717Z,4.92
2022-11-04T00:29:48.026Z,4.95
2022-11-04T00:32:34.729Z,4.99
2022-11-04T00:35:03.183Z,5.01
2022-11-04T00:37:31.692Z,5.03
2022-11-04T00:39:59.915Z,5.05
2022-11-04T00:42:28.355Z,5.08
2022-11-04T00:44:56.753Z,5.10
2022-11-04T00:47:25.017Z,5.11
2022-11-04T00:49:53.599Z,5.10
2022-11-04T00:52:22.172Z,5.11
2022-11-04T00:54:50.637Z,5.13
2022-11-04T00:57:19.219Z,5.18
2022-11-04T00:59:48.940Z,5.24
2022-11-04T01:02:18.273Z,5.30
2022-11-04T01:04:48.912Z,5.36
2022-11-04T01:07:18.418Z,5.43
2022-11-04T01:09:48.322Z,5.50
2022-11-04T01:12:19.498Z,5.57
2022-11-04T01:14:49.571Z,5.62
2022-11-04T01:17:18.663Z,5.65
2022-11-04T01:19:50.014Z,5.65
2022-11-04T01:22:18.601Z,5.66
2022-11-04T01:24:48.111Z,5.65
2022-11-04T01:27:16.479Z,5.68
2022-11-04T01:29:45.482Z,5.70
2022-11-04T01:32:13.758Z,5.73
2022-11-04T01:34:43.560Z,5.76
2022-11-04T01:37:15.432Z,5.79
2022-11-04T01:39:44.339Z,5.82
2022-11-04T01:42:15.160Z,5.84
2022-11-04T01:44:52.896Z,5.86
2022-11-04T01:47:26.260Z,5.86
2022-11-04T01:49:59.134Z,5.83
2022-11-04T01:52:34.069Z,5.80
2022-11-04T01:55:10.493Z,5.79
2022-11-04T01:57:42.170Z,5.79
2022-11-04T02:00:13.743Z,5.80
2022-11-04T02:02:54.616Z,5.82
2022-11-04T02:05:23.613Z,5.84
2022-11-04T02:07:57.651Z,5.84
2022-11-04T02:10:28.358Z,5.83
2022-11-04T02:12:59.431Z,5.83
2022-11-04T02:15:35.976Z,5.83
2022-11-04T02:18:21.965Z,5.82
2022-11-04T02:21:11.283Z,5.80
2022-11-04T02:23:50.907Z,5.80
2022-11-04T02:26:51.112Z,5.81
2022-11-04T02:29:34.754Z,5.82
2022-11-04T02:32:15.614Z,5.82
2022-11-04T02:34:55.895Z,5.82
2022-11-04T02:37:38.691Z,5.82
2022-11-04T02:40:21.843Z,5.79
2022-11-04T02:42:57.611Z,5.77
2022-11-04T02:45:33.427Z,5.76
2022-11-04T02:48:10.975Z,5.76
2022-11-04T02:50:45.437Z,5.75
2022-11-04T02:53:21.097Z,5.75
2022-11-04T02:55:54.420Z,5.76
2022-11-04T02:58:27.469Z,5.78
2022-11-04T03:00:58.694Z,5.79
2022-11-04T03:03:32.525Z,5.83
2022-11-04T03:06:03.264Z,5.87
2022-11-04T03:08:37.029Z,5.87
2022-11-04T03:11:13.643Z,5.89
2022-11-04T03:13:50.300Z,5.88
2022-11-04T03:16:24.228Z,5.88
2022-11-04T03:19:00.691Z,5.89
2022-11-04T03:21:33.580Z,5.90
2022-11-04T03:24:04.107Z,5.92
2022-11-04T03:26:41.282Z,5.93
2022-11-04T03:29:21.880Z,5.95
2022-11-04T03:32:00.275Z,5.97
2022-11-04T03:34:29.882Z,5.99
2022-11-04T03:36:59.682Z,5.99
2022-11-04T03:39:28.305Z,5.99
2022-11-04T03:41:59.617Z,6.00
2022-11-04T03:44:30.162Z,5.99
2022-11-04T03:47:00.977Z,6.00
2022-11-04T03:49:30.712Z,6.02
2022-11-04T03:51:59.321Z,6.05
2022-11-04T03:54:28.557Z,6.08
2022-11-04T03:57:35.568Z,6.11
2022-11-04T04:00:10.105Z,6.17
2022-11-04T04:02:59.308Z,6.21
2022-11-04T04:05:31.062Z,6.23
2022-11-04T04:08:15.217Z,6.24
2022-11-04T04:10:52.711Z,6.25
2022-11-04T04:13:31.736Z,6.25
2022-11-04T04:16:04.496Z,6.27
2022-11-04T04:18:54.099Z,6.30
2022-11-04T04:21:32.103Z,6.34
2022-11-04T04:24:24.183Z,6.38
2022-11-04T04:27:14.579Z,6.42
2022-11-04T04:29:44.808Z,6.46
2022-11-04T04:32:14.716Z,6.48
2022-11-04T04:34:43.364Z,6.50
2022-11-04T04:37:17.516Z,6.49
2022-11-04T04:40:10.075Z,6.50
2022-11-04T04:42:57.595Z,6.52
2022-11-04T04:45:33.276Z,6.53
2022-11-04T04:48:07.653Z,6.57
2022-11-04T04:50:40.891Z,6.61
2022-11-04T04:53:09.549Z,6.65
2022-11-04T04:55:41.668Z,6.66
2022-11-04T04:58:13.482Z,6.67
2022-11-04T05:00:42.304Z,6.67
2022-11-04T05:03:11.124Z,6.66
2022-11-04T05:05:39.911Z,6.65
2022-11-04T05:08:09.370Z,6.66
2022-11-04T05:10:37.965Z,6.69
2022-11-04T05:13:24.363Z,6.72
2022-11-04T05:15:53.366Z,6.73
2022-11-04T05:18:21.793Z,6.74
2022-11-04T05:20:50.277Z,6.74
2022-11-04T05:23:19.241Z,6.72
2022-11-04T05:25:49.205Z,6.71
2022-11-04T05:28:17.694Z,6.71
2022-11-04T05:30:46.946Z,6.71
2022-11-04T05:33:15.966Z,6.73
2022-11-04T05:35:44.427Z,6.75
2022-11-04T05:38:14.664Z,6.78
2022-11-04T05:40:43.082Z,6.79
2022-11-04T05:43:12.365Z,6.80
2022-11-04T05:45:41.333Z,6.78
2022-11-04T05:48:09.766Z,6.79
2022-11-04T05:50:41.157Z,6.78
2022-11-04T05:53:10.370Z,6.79
2022-11-04T05:55:38.974Z,6.80
2022-11-04T05:58:07.767Z,6.82
2022-11-04T06:00:37.149Z,6.85
2022-11-04T06:03:05.696Z,6.88
2022-11-04T06:05:34.197Z,6.92
2022-11-04T06:08:02.748Z,6.93
2022-11-04T06:10:32.006Z,6.93
2022-11-04T06:13:00.679Z,6.94
2022-11-04T06:15:32.147Z,6.93
2022-11-04T06:18:00.470Z,6.94
2022-11-04T06:20:28.758Z,6.96
2022-11-04T06:23:00.097Z,7.01
2022-11-04T06:25:31.279Z,7.06
2022-11-04T06:28:00.256Z,7.10
2022-11-04T06:30:28.814Z,7.14
2022-11-04T06:32:57.238Z,7.13
2022-11-04T06:35:25.826Z,7.13
2022-11-04T06:37:56.064Z,7.14
2022-11-04T06:40:24.921Z,7.16
2022-11-04T06:42:53.402Z,7.19
2022-11-04T06:45:22.420Z,7.22
2022-11-04T06:47:50.796Z,7.25
2022-11-04T06:50:19.488Z,7.28
2022-11-04T06:52:49.455Z,7.30
2022-11-04T06:55:17.941Z,7.32
2022-11-04T06:57:46.432Z,7.33
2022-11-04T07:00:19.005Z,7.34
2022-11-04T07:02:50.896Z,7.36
2022-11-04T07:05:19.293Z,7.38
2022-11-04T07:07:49.177Z,7.41
2022-11-04T07:10:17.919Z,7.45
2022-11-04T07:12:46.323Z,7.47
2022-11-04T07:15:20.036Z,7.48
2022-11-04T07:17:51.677Z,7.49
2022-11-04T07:20:22.889Z,7.51
2022-11-04T07:22:54.638Z,7.52
2022-11-04T07:25:23.764Z,7.55
2022-11-04T07:27:58.117Z,7.59
2022-11-04T07:30:29.756Z,7.66
2022-11-04T07:32:58.161Z,7.71
2022-11-04T07:35:29.279Z,7.74
2022-11-04T07:37:57.943Z,7.79
2022-11-04T07:40:26.331Z,7.83
2022-11-04T07:42:54.776Z,7.84
2022-11-04T07:45:32.295Z,7.88
2022-11-04T07:48:00.787Z,7.90
2022-11-04T07:50:29.504Z,7.93
2022-11-04T07:52:58.750Z,7.98
2022-11-04T07:55:27.687Z,8.01
2022-11-04T07:57:55.947Z,8.04
2022-11-04T08:00:24.818Z,8.08
2022-11-04T08:02:53.422Z,8.10
2022-11-04T08:05:21.840Z,8.11
2022-11-04T08:07:50.929Z,8.10
2022-11-04T08:10:19.394Z,8.09
2022-11-04T08:12:50.816Z,8.08
2022-11-04T08:15:19.682Z,8.08
2022-11-04T08:17:48.327Z,8.08
2022-11-04T08:20:17.052Z,8.10
2022-11-04T08:22:45.735Z,8.11
2022-11-04T08:25:14.051Z,8.12
2022-11-04T08:27:43.012Z,8.14
2022-11-04T08:30:13.225Z,8.14
2022-11-04T08:32:41.819Z,8.14
2022-11-04T08:35:13.912Z,8.14
2022-11-04T08:37:42.314Z,8.16
2022-11-04T08:40:11.848Z,8.19
2022-11-04T08:42:40.100Z,8.22
2022-11-04T08:45:09.668Z,8.23
2022-11-04T08:47:38.952Z,8.24
2022-11-04T08:50:08.299Z,8.22
2022-11-04T08:52:36.799Z,8.20
2022-11-04T08:55:07.580Z,8.17
2022-11-04T08:57:36.748Z,8.16
2022-11-04T09:00:07.127Z,8.19
2022-11-04T09:02:35.594Z,8.24
2022-11-04T09:05:05.199Z,8.27
2022-11-04T09:07:34.876Z,8.28
2022-11-04T09:10:05.518Z,8.30
2022-11-04T09:12:34.069Z,8.30
2022-11-04T09:15:02.516Z,8.31
2022-11-04T09:17:32.084Z,8.31
2022-11-04T09:20:01.397Z,8.34
2022-11-04T09:22:29.874Z,8.38
2022-11-04T09:24:58.361Z,8.43
2022-11-04T09:27:26.687Z,8.50
2022-11-04T09:29:55.056Z,8.57
2022-11-04T09:32:23.620Z,8.62
2022-11-04T09:34:55.060Z,8.67
2022-11-04T09:37:23.642Z,8.72
2022-11-04T09:39:53.990Z,8.77
2022-11-04T09:42:38.156Z,8.81
2022-11-04T09:45:21.666Z,8.86
2022-11-04T09:47:56.189Z,8.95
2022-11-04T09:50:31.864Z,9.07
2022-11-04T09:53:05.233Z,9.20
2022-11-04T09:55:41.129Z,9.32
2022-11-04T09:58:14.126Z,9.44
2022-11-04T10:00:50.904Z,9.54
2022-11-04T10:03:37.667Z,9.63
2022-11-04T10:06:19.864Z,9.77
2022-11-04T10:09:04.625Z,10.03
2022-11-04T10:11:40.910Z,10.38
2022-11-04T10:14:35.181Z,10.55
2022-11-04T10:17:13.514Z,10.75
2022-11-04T10:19:55.308Z,11.09
2022-11-04T10:22:33.325Z,11.28
2022-11-04T10:25:10.384Z,11.42
2022-11-04T10:27:42.747Z,11.60
2022-11-04T10:30:18.943Z,12.01
2022-11-04T10:32:59.051Z,12.32
2022-11-04T10:35:34.794Z,12.39
2022-11-04T10:38:16.925Z,12.48
2022-11-04T10:40:49.538Z,12.53
2022-11-04T10:43:25.788Z,12.52
2022-11-04T10:46:05.638Z,12.46
2022-11-04T10:48:39.817Z,12.50
2022-11-04T10:51:08.753Z,12.57
2022-11-04T10:53:37.679Z,12.58
2022-11-04T10:56:13.559Z,12.47
2022-11-04T10:58:46.327Z,12.31
2022-11-04T11:01:28.292Z,12.18
2022-11-04T11:03:58.359Z,12.06
2022-11-04T11:06:29.577Z,12.03
2022-11-04T11:09:00.979Z,12.07
2022-11-04T11:11:40.700Z,12.20
2022-11-04T11:14:30.507Z,12.36
2022-11-04T11:17:18.419Z,12.53
2022-11-04T11:19:53.473Z,12.62
2022-11-04T11:22:46.249Z,12.62
2022-11-04T11:25:26.892Z,12.62
2022-11-04T11:27:58.138Z,12.66
2022-11-04T11:30:30.826Z,12.70
2022-11-04T11:33:03.212Z,12.73
2022-11-04T11:35:41.600Z,12.76
2022-11-04T11:38:21.954Z,12.77
2022-11-04T11:41:18.433Z,12.81
2022-11-04T11:43:46.066Z,12.84
2022-11-04T11:46:24.471Z,12.85
2022-11-04T11:48:54.098Z,12.82
2022-11-04T11:51:32.051Z,12.76
2022-11-04T11:54:25.084Z,12.73
2022-11-04T12:02:51.886Z,12.72
2022-11-04T12:11:36.749Z,12.74
2022-11-04T12:14:16.804Z,12.72
2022-11-04T12:16:58.434Z,12.71
2022-11-04T12:19:44.686Z,12.66
2022-11-04T12:22:26.524Z,12.62
2022-11-04T12:25:04.550Z,12.58
2022-11-04T12:27:38.100Z,12.58
2022-11-04T12:30:10.864Z,12.56
2022-11-04T12:32:53.673Z,12.52
2022-11-04T12:35:40.315Z,12.45
2022-11-04T12:38:22.771Z,12.41
2022-11-04T12:41:26.265Z,12.40
2022-11-04T12:43:58.212Z,12.38
2022-11-04T12:46:38.724Z,12.38
2022-11-04T12:49:35.341Z,12.38
2022-11-04T12:52:16.213Z,12.36
2022-11-04T12:55:00.485Z,12.31
2022-11-04T12:57:36.309Z,12.25
2022-11-04T13:00:16.780Z,12.19
2022-11-04T13:02:51.639Z,12.13
2022-11-04T13:05:30.436Z,12.06
2022-11-04T13:08:13.973Z,12.01
2022-11-04T13:10:49.376Z,11.97
2022-11-04T13:13:22.083Z,11.94
2022-11-04T13:15:57.996Z,11.92
2022-11-04T13:18:35.686Z,11.88
2022-11-04T13:21:08.162Z,11.85
2022-11-04T13:23:45.193Z,11.84
2022-11-04T13:26:17.736Z,11.82
2022-11-04T13:29:02.923Z,11.82
2022-11-04T13:31:50.585Z,11.84
2022-11-04T13:34:32.607Z,11.86
2022-11-04T13:37:11.238Z,11.87
2022-11-04T13:39:45.545Z,11.85
2022-11-04T13:42:35.683Z,11.83
2022-11-04T13:45:13.507Z,11.79
2022-11-04T13:48:03.963Z,11.75
2022-11-04T13:50:46.496Z,11.71
2022-11-04T13:53:43.637Z,11.66
2022-11-04T13:56:33.279Z,11.61
2022-11-04T13:59:29.811Z,11.54
2022-11-04T14:02:37.251Z,11.47
2022-11-04T14:05:52.021Z,11.40
2022-11-04T14:08:21.181Z,11.33
2022-11-04T14:11:06.104Z,11.26
2022-11-04T14:14:01.982Z,11.21
2022-11-04T14:16:42.175Z,11.16
2022-11-04T14:19:56.062Z,11.12
2022-11-04T14:22:53.964Z,11.08
2022-11-04T14:25:26.185Z,11.04
2022-11-04T14:27:56.350Z,11.01
2022-11-04T14:30:44.282Z,10.97
2022-11-04T14:33:27.520Z,10.92
2022-11-04T14:36:14.627Z,10.87
2022-11-04T14:38:44.566Z,10.81
2022-11-04T14:41:21.410Z,10.75
2022-11-04T14:43:54.951Z,10.70
2022-11-04T14:46:28.238Z,10.65
2022-11-04T14:49:01.258Z,10.60
2022-11-04T14:51:33.053Z,10.56
2022-11-04T14:54:06.491Z,10.52
2022-11-04T14:56:35.684Z,10.48
2022-11-04T14:59:06.772Z,10.45
2022-11-04T15:01:38.973Z,10.43
2022-11-04T15:04:14.728Z,10.41
2022-11-04T15:06:58.955Z,10.41
2022-11-04T15:09:31.855Z,10.40
2022-11-04T15:12:30.504Z,10.40
2022-11-04T15:15:00.217Z,10.39
2022-11-04T15:17:33.215Z,10.39
2022-11-04T15:20:04.170Z,10.35
2022-11-04T15:22:33.087Z,10.31
2022-11-04T15:25:05.433Z,10.28
2022-11-04T15:27:38.025Z,10.24
2022-11-04T15:30:24.042Z,10.22
2022-11-04T15:32:57.874Z,10.20
2022-11-04T15:35:28.995Z,10.17
2022-11-04T15:38:00.122Z,10.13
2022-11-04T15:40:31.435Z,10.12
2022-11-04T15:43:02.532Z,10.12
2022-11-04T15:45:37.147Z,10.12
2022-11-04T15:48:30.846Z,10.12
2022-11-04T15:51:19.251Z,10.11
2022-11-04T15:53:57.538Z,10.10
2022-11-04T15:56:29.171Z,10.07
2022-11-04T15:59:01.026Z,10.04
2022-11-04T16:01:32.112Z,10.01
2022-11-04T16:04:02.486Z,10.00
2022-11-04T16:06:39.662Z,9.98
2022-11-04T16:09:26.438Z,9.96
2022-11-04T16:12:14.286Z,9.95
2022-11-04T16:14:53.964Z,9.96
2022-11-04T16:17:23.021Z,9.97
2022-11-04T16:19:54.262Z,9.99
2022-11-04T16:22:29.819Z,10.00
2022-11-04T16:25:00.344Z,10.00
2022-11-04T16:27:35.451Z,9.99
2022-11-04T16:30:19.018Z,9.97
2022-11-04T16:32:56.076Z,9.95
2022-11-04T16:35:27.141Z,9.92
2022-11-04T16:38:00.397Z,9.89
2022-11-04T16:40:29.661Z,9.89
2022-11-04T16:42:59.869Z,9.89
2022-11-04T16:45:32.904Z,9.90
2022-11-04T16:48:04.957Z,9.91
2022-11-04T16:50:33.692Z,9.93
2022-11-04T16:53:03.402Z,9.93
2022-11-04T16:55:32.603Z,9.92
2022-11-04T16:58:06.010Z,9.90
2022-11-04T17:00:35.297Z,9.89
2022-11-04T17:03:20.580Z,9.86
2022-11-04T17:06:00.104Z,9.82
2022-11-04T17:08:28.537Z,9.79
2022-11-04T17:10:57.591Z,9.75
2022-11-04T17:13:25.870Z,9.72
2022-11-04T17:15:57.154Z,9.73
2022-11-04T17:18:30.258Z,9.76
2022-11-04T17:21:06.804Z,9.78
2022-11-04T17:23:42.699Z,9.78
2022-11-04T17:26:12.615Z,9.77
2022-11-04T17:28:41.717Z,9.74
2022-11-04T17:31:16.186Z,9.73
2022-11-04T17:33:51.307Z,9.70
2022-11-04T17:36:22.143Z,9.68
2022-11-04T17:38:56.536Z,9.64
2022-11-04T17:41:48.936Z,9.62
2022-11-04T17:44:24.569Z,9.60
2022-11-04T17:46:56.721Z,9.60
2022-11-04T17:49:30.232Z,9.60
2022-11-04T17:52:00.709Z,9.60
2022-11-04T17:54:32.938Z,9.60
2022-11-04T17:57:01.519Z,9.58
2022-11-04T17:59:33.937Z,9.57
2022-11-04T18:02:05.444Z,9.55
2022-11-04T18:04:34.931Z,9.53
2022-11-04T18:07:03.875Z,9.51
2022-11-04T18:09:34.280Z,9.50
2022-11-04T18:12:27.113Z,9.50
2022-11-04T18:14:55.647Z,9.53
2022-11-04T18:17:24.382Z,9.54
2022-11-04T18:19:53.043Z,9.55
2022-11-04T18:22:22.263Z,9.55
2022-11-04T18:24:53.610Z,9.55
2022-11-04T18:27:22.919Z,9.54
2022-11-04T18:29:51.274Z,9.54
2022-11-04T18:32:19.728Z,9.52
2022-11-04T18:34:50.612Z,9.50
2022-11-04T18:37:19.198Z,9.49
2022-11-04T18:39:50.447Z,9.48
2022-11-04T18:42:21.889Z,9.48
2022-11-04T18:44:51.291Z,9.49
2022-11-04T18:47:20.258Z,9.51
2022-11-04T18:49:49.956Z,9.53
2022-11-04T18:52:18.494Z,9.54
2022-11-04T18:54:48.609Z,9.54
2022-11-04T18:57:16.942Z,9.53
2022-11-04T18:59:45.432Z,9.51
2022-11-04T19:02:19.738Z,9.50
2022-11-04T19:04:48.712Z,9.47
2022-11-04T19:07:18.589Z,9.45
2022-11-04T19:09:50.464Z,9.45
2022-11-04T19:12:37.400Z,9.46
2022-11-04T19:15:11.300Z,9.47
2022-11-04T19:17:45.606Z,9.47
2022-11-04T19:20:16.585Z,9.48
2022-11-04T19:22:50.359Z,9.47
2022-11-04T19:25:19.359Z,9.47
2022-11-04T19:28:11.568Z,9.46
2022-11-04T19:30:42.176Z,9.44
2022-11-04T19:33:11.023Z,9.41
2022-11-04T19:35:41.019Z,9.40
2022-11-04T19:38:09.787Z,9.39
2022-11-04T19:40:38.785Z,9.38
2022-11-04T19:43:17.608Z,9.36
2022-11-04T19:45:49.723Z,9.36
2022-11-04T19:48:20.694Z,9.38
2022-11-04T19:50:52.741Z,9.39
2022-11-04T19:53:22.579Z,9.38
2022-11-04T19:55:55.088Z,9.37
2022-11-04T19:58:23.686Z,9.34
2022-11-04T20:01:04.491Z,9.34
2022-11-04T20:03:45.232Z,9.30
2022-11-04T20:06:18.309Z,9.24
2022-11-04T20:08:48.929Z,9.20
2022-11-04T20:11:20.178Z,9.17
2022-11-04T20:13:51.863Z,9.16
2022-11-04T20:16:22.506Z,9.17
2022-11-04T20:18:56.196Z,9.21
2022-11-04T20:21:30.615Z,9.23
2022-11-04T20:24:02.146Z,9.26
2022-11-04T20:26:32.186Z,9.24
2022-11-04T20:29:02.005Z,9.21
2022-11-04T20:31:33.175Z,9.18
2022-11-04T20:34:05.489Z,9.15
2022-11-04T20:36:35.210Z,9.11
2022-11-04T20:39:06.341Z,9.08
2022-11-04T20:41:35.437Z,9.06
2022-11-04T20:44:04.014Z,9.05
2022-11-04T20:46:34.319Z,9.02
2022-11-04T20:49:03.448Z,9.02
2022-11-04T20:51:33.955Z,9.03
2022-11-04T20:54:06.108Z,9.05
2022-11-04T20:56:36.608Z,9.04
2022-11-04T20:59:06.145Z,9.02
2022-11-04T21:01:38.121Z,8.99
2022-11-04T21:04:08.999Z,8.96
2022-11-04T21:06:38.539Z,8.95
2022-11-04T21:09:09.283Z,8.93
2022-11-04T21:11:39.132Z,8.93
2022-11-04T21:14:10.942Z,8.94
2022-11-04T21:16:39.654Z,8.96
2022-11-04T21:19:08.031Z,8.99
2022-11-04T21:21:36.333Z,9.02
2022-11-04T21:24:07.103Z,9.04
2022-11-04T21:26:36.198Z,9.06
2022-11-04T21:29:08.745Z,9.07
2022-11-04T21:31:37.741Z,9.06
2022-11-04T21:34:06.275Z,9.05
2022-11-04T21:36:35.234Z,9.03
2022-11-04T21:39:04.023Z,9.01
2022-11-04T21:41:33.344Z,9.01
2022-11-04T21:44:03.680Z,9.03
2022-11-04T21:46:33.522Z,9.05
2022-11-04T21:49:02.552Z,9.08
2022-11-04T21:51:32.602Z,9.10
2022-11-04T21:54:04.019Z,9.10
2022-11-04T21:56:32.729Z,9.11
2022-11-04T21:59:01.504Z,9.10
2022-11-04T22:01:30.945Z,9.07
2022-11-04T22:04:01.858Z,9.05
2022-11-04T22:06:35.075Z,9.05
2022-11-04T22:09:06.042Z,9.05
2022-11-04T22:11:38.305Z,9.06
2022-11-04T22:14:07.947Z,9.09
2022-11-04T22:16:38.942Z,9.11
2022-11-04T22:19:10.138Z,9.13
2022-11-04T22:21:40.878Z,9.16
2022-11-04T22:24:11.187Z,9.15
2022-11-04T22:26:40.052Z,9.14
2022-11-04T22:29:08.771Z,9.13
2022-11-04T22:31:39.562Z,9.11
2022-11-04T22:34:09.109Z,9.11
2022-11-04T22:36:39.124Z,9.10
2022-11-04T22:39:15.056Z,9.11
2022-11-04T22:44:28.952Z,9.14
2022-11-04T22:46:57.675Z,9.16
2022-11-04T22:49:26.346Z,9.17
2022-11-04T22:51:54.702Z,9.17
2022-11-04T22:54:23.020Z,9.16
2022-11-04T22:56:54.164Z,9.14
2022-11-04T22:59:23.374Z,9.12
2022-11-04T23:01:54.686Z,9.10
2022-11-04T23:04:23.465Z,9.09
2022-11-04T23:06:53.913Z,9.10
2022-11-04T23:09:24.538Z,9.11
2022-11-04T23:12:12.417Z,9.13
2022-11-04T23:15:01.525Z,9.13
2022-11-04T23:17:49.271Z,9.11
2022-11-04T23:20:21.409Z,9.08
2022-11-04T23:23:10.603Z,9.07
2022-11-04T23:25:40.619Z,9.05
2022-11-04T23:28:28.308Z,9.03
2022-11-04T23:30:58.886Z,9.01
2022-11-04T23:33:42.005Z,9.00
2022-11-04T23:36:29.015Z,8.99
2022-11-04T23:38:57.478Z,9.00
2022-11-04T23:41:44.309Z,9.01
2022-11-04T23:44:31.104Z,9.02
2022-11-04T23:47:18.037Z,9.01
2022-11-04T23:50:07.364Z,9.01
2022-11-04T23:52:53.689Z,8.99
2022-11-04T23:55:40.601Z,8.96
2022-11-04T23:58:28.326Z,8.94
